.
WxDataArchive / Data Records for 2012-12-04
2012-12-03 December 2012 2012-12-05

Data Records for Tuesday, 04 December 2012

Time	Temp	Chill	HIndex	Humid	Dewpt	 Wind 	HiWind	WindDir	Rain 	Barom 
-----	----	-----	------	-----	-----	------	------	-------	-----	----- 
00:00	61.3	61.3	61.3	79	54.7	1	6	248	0.00	29.953 
00:05	61.2	61.2	61.2	79	54.6	1	5	248	0.00	29.953 
00:10	61.3	61.3	61.3	79	54.7	1	5	248	0.00	29.953 
00:15	61.3	61.3	61.3	78	54.4	1	4	248	0.00	29.951 
00:20	61.2	61.2	61.2	78	54.3	2	6	225	0.00	29.951 
00:25	61.2	61.2	61.2	78	54.3	1	6	248	0.00	29.951 
00:30	61.2	61.2	61.2	78	54.3	1	3	248	0.00	29.949 
00:35	61.0	61.0	61.0	79	54.4	1	4	248	0.00	29.949 
00:40	60.9	60.9	60.9	79	54.3	1	7	248	0.00	29.949 
00:45	60.9	60.9	60.9	79	54.3	1	7	248	0.00	29.948 
00:50	60.7	60.7	60.7	79	54.1	2	9	248	0.00	29.948 
00:55	60.7	60.7	60.7	79	54.1	1	5	270	0.00	29.948 
01:00	60.7	60.7	60.7	78	53.8	1	4	248	0.00	29.944 
01:05	60.5	60.5	60.5	78	53.6	1	4	292	0.00	29.944 
01:10	60.5	60.5	60.5	78	53.6	1	6	248	0.00	29.944 
01:15	60.5	60.5	60.5	77	53.2	1	6	248	0.00	29.944 
01:20	60.5	60.5	60.5	77	53.2	1	7	248	0.00	29.944 
01:25	60.5	60.5	60.5	77	53.2	2	7	248	0.00	29.944 
01:30	60.5	60.5	60.5	77	53.2	1	4	248	0.00	29.939 
01:35	60.5	60.5	60.5	77	53.2	1	5	248	0.00	29.939 
01:40	60.4	60.4	60.4	77	53.2	1	5	248	0.00	29.939 
01:45	60.4	60.4	60.4	77	53.2	1	5	90	0.00	29.937 
01:50	60.4	60.4	60.4	77	53.2	2	5	248	0.00	29.937 
01:55	60.4	60.4	60.4	76	52.8	1	6	248	0.00	29.937 
02:00	60.4	60.4	60.4	76	52.8	2	9	270	0.00	29.938 
02:05	60.2	60.2	60.2	76	52.6	1	4	225	0.00	29.938 
02:10	60.2	60.2	60.2	76	52.6	2	6	248	0.00	29.938 
02:15	60.1	60.1	60.1	76	52.5	1	4	248	0.00	29.937 
02:20	60.1	60.1	60.1	76	52.5	1	3	225	0.00	29.937 
02:25	59.9	59.9	59.9	76	52.3	1	4	248	0.00	29.937 
02:30	59.9	59.9	59.9	76	52.3	1	4	22	0.00	29.940 
02:35	59.9	59.9	59.9	75	52.0	0	3	248	0.00	29.940 
02:40	59.9	59.9	59.9	75	52.0	0	2	248	0.00	29.940 
02:45	59.8	59.8	59.8	75	51.9	1	4	68	0.00	29.942 
02:50	59.8	59.8	59.8	75	51.9	1	3	248	0.00	29.942 
02:55	59.8	59.8	59.8	75	51.9	1	3	270	0.00	29.942 
03:00	59.8	59.8	59.8	75	51.9	1	4	248	0.00	29.939 
03:05	59.8	59.8	59.8	75	51.9	1	5	248	0.00	29.939 
03:10	59.9	59.9	59.9	75	52.0	1	3	248	0.00	29.939 
03:15	59.9	59.9	59.9	75	52.0	1	3	248	0.00	29.940 
03:20	59.9	59.9	59.9	74	51.6	1	4	248	0.00	29.940 
03:25	59.9	59.9	59.9	74	51.6	1	4	248	0.00	29.940 
03:30	59.9	59.9	59.9	74	51.6	1	4	248	0.00	29.938 
03:35	59.9	59.9	59.9	74	51.6	1	6	225	0.00	29.938 
03:40	59.9	59.9	59.9	74	51.6	1	6	248	0.00	29.938 
03:45	59.8	59.8	59.8	74	51.5	1	4	248	0.00	29.937 
03:50	59.8	59.8	59.8	74	51.5	1	5	248	0.00	29.937 
03:55	59.6	59.6	59.6	74	51.3	1	4	248	0.00	29.937 
04:00	59.6	59.6	59.6	74	51.3	1	7	248	0.00	29.933 
04:05	59.6	59.6	59.6	74	51.3	1	4	248	0.00	29.933 
04:10	59.6	59.6	59.6	74	51.3	1	5	248	0.00	29.933 
04:15	59.6	59.6	59.6	74	51.3	2	5	248	0.00	29.928 
04:20	59.6	59.6	59.6	74	51.3	1	3	248	0.00	29.928 
04:25	59.5	59.5	59.5	74	51.2	1	3	248	0.00	29.928 
04:30	59.5	59.5	59.5	75	51.6	1	3	248	0.00	29.925 
04:35	59.5	59.5	59.5	75	51.6	1	5	248	0.00	29.925 
04:40	59.5	59.5	59.5	75	51.6	1	5	270	0.00	29.925 
04:45	59.3	59.3	59.3	75	51.4	1	6	248	0.00	29.926 
04:50	59.3	59.3	59.3	75	51.4	1	3	248	0.00	29.926 
04:55	59.3	59.3	59.3	75	51.4	0	3	248	0.00	29.926 
05:00	59.3	59.3	59.3	75	51.4	1	3	248	0.00	29.927 
05:05	59.3	59.3	59.3	75	51.4	1	3	248	0.00	29.927 
05:10	59.3	59.3	59.3	75	51.4	1	5	248	0.00	29.927 
05:15	59.2	59.2	59.2	75	51.3	1	4	248	0.00	29.926 
05:20	59.2	59.2	59.2	75	51.3	1	5	248	0.00	29.926 
05:25	59.2	59.2	59.2	75	51.3	0	3	248	0.00	29.926 
05:30	59.3	59.3	59.3	75	51.4	1	4	248	0.00	29.932 
05:35	59.3	59.3	59.3	75	51.4	1	4	248	0.00	29.932 
05:40	59.5	59.5	59.5	75	51.6	1	4	248	0.00	29.932 
05:45	59.5	59.5	59.5	75	51.6	1	4	225	0.00	29.928 
05:50	59.5	59.5	59.5	75	51.6	1	6	248	0.00	29.928 
05:55	59.6	59.6	59.6	75	51.7	1	5	248	0.00	29.928 
06:00	59.6	59.6	59.6	75	51.7	1	4	248	0.00	29.928 
06:05	59.6	59.6	59.6	75	51.7	1	4	248	0.00	29.928 
06:10	59.6	59.6	59.6	75	51.7	1	4	225	0.00	29.928 
06:15	59.5	59.5	59.5	75	51.6	1	4	270	0.00	29.934 
06:20	59.5	59.5	59.5	75	51.6	1	5	225	0.00	29.934 
06:25	59.5	59.5	59.5	76	51.9	1	5	248	0.00	29.934 
06:30	59.5	59.5	59.5	76	51.9	1	3	248	0.00	29.933 
06:35	59.5	59.5	59.5	76	51.9	0	3	270	0.00	29.933 
06:40	59.5	59.5	59.5	76	51.9	1	3	270	0.00	29.933 
06:45	59.5	59.5	59.5	77	52.3	1	4	248	0.00	29.940 
06:50	59.3	59.3	59.3	78	52.4	1	4	248	0.00	29.940 
06:55	59.2	59.2	59.2	79	52.7	1	3	248	0.00	29.940 
07:00	59.0	59.0	59.0	79	52.5	1	4	225	0.00	29.943 
07:05	59.0	59.0	59.0	79	52.5	1	4	248	0.00	29.943 
07:10	59.0	59.0	59.0	80	52.8	1	4	248	0.00	29.943 
07:15	59.0	59.0	59.0	81	53.2	1	6	248	0.00	29.948 
07:20	59.0	59.0	59.0	82	53.5	2	6	248	0.00	29.948 
07:25	59.0	59.0	59.0	82	53.5	2	9	248	0.00	29.948 
07:30	59.0	59.0	59.0	83	53.8	1	4	248	0.00	29.949 
07:35	59.0	59.0	59.0	83	53.8	1	4	248	0.00	29.949 
07:40	59.0	59.0	59.0	84	54.2	1	4	248	0.00	29.949 
07:45	59.0	59.0	59.0	84	54.2	1	4	248	0.00	29.958 
07:50	59.0	59.0	59.0	84	54.2	2	5	248	0.00	29.958 
07:55	59.0	59.0	59.0	84	54.2	1	4	270	0.00	29.958 
08:00	59.0	59.0	59.0	84	54.2	2	7	248	0.00	29.960 
08:05	59.2	59.2	59.2	84	54.4	3	7	248	0.00	29.960 
08:10	59.2	59.2	59.2	84	54.4	2	5	248	0.00	29.960 
08:15	59.0	59.0	59.0	84	54.2	3	7	270	0.00	29.972 
08:20	57.5	57.5	57.5	81	51.7	3	10	292	0.00	29.972 
08:25	56.2	56.2	56.2	82	50.8	2	4	292	0.00	29.972 
08:30	54.8	54.8	54.8	83	49.7	3	9	292	0.00	29.992 
08:35	53.8	53.8	53.8	85	49.4	3	7	292	0.00	29.992 
08:40	53.2	53.2	53.2	87	49.4	1	4	315	0.00	29.992 
08:45	52.6	52.6	52.6	88	49.1	1	5	0	0.00	29.993 
08:50	52.0	52.0	52.0	88	48.6	2	4	338	0.00	29.993 
08:55	51.4	51.4	51.4	88	48.0	1	4	0	0.00	29.993 
09:00	51.0	51.0	51.0	88	47.6	2	4	338	0.00	30.003 
09:05	50.8	50.8	50.8	88	47.4	1	3	338	0.00	30.003 
09:10	50.7	50.7	50.7	88	47.3	1	4	338	0.02	30.003 
09:15	50.4	50.4	50.4	89	47.3	1	3	0	0.01	30.005 
09:20	50.1	50.1	50.1	89	47.0	1	3	0	0.00	30.005 
09:25	49.9	49.9	49.9	90	47.1	1	2	338	0.00	30.005 
09:30	49.8	49.8	49.8	90	47.0	1	3	248	0.01	30.026 
09:35	49.4	49.4	49.4	90	46.6	1	4	315	0.04	30.026 
09:40	49.1	49.1	49.1	91	46.6	2	7	292	0.01	30.026 
09:45	48.8	48.8	48.8	91	46.3	0	5	270	0.00	30.020 
09:50	48.6	48.6	48.6	91	46.1	1	5	0	0.00	30.020 
09:55	48.5	48.5	48.5	92	46.3	2	5	338	0.00	30.020 
10:00	48.5	48.5	48.5	92	46.3	1	3	338	0.00	30.033 
10:05	48.3	48.3	48.3	92	46.1	1	4	292	0.00	30.033 
10:10	48.0	48.0	48.0	92	45.8	2	4	270	0.01	30.033 
10:15	47.7	47.7	47.7	92	45.5	2	4	270	0.00	30.041 
10:20	47.4	47.4	47.4	92	45.2	2	5	292	0.01	30.041 
10:25	47.1	47.1	47.1	92	44.9	1	5	338	0.01	30.041 
10:30	47.0	47.0	47.0	92	44.8	1	3	338	0.01	30.046 
10:35	46.5	46.5	46.5	92	44.3	1	5	338	0.00	30.046 
10:40	45.8	45.8	45.8	91	43.3	1	5	315	0.01	30.046 
10:45	45.2	45.2	45.2	91	42.7	1	3	0	0.00	30.047 
10:50	45.1	45.1	45.1	91	42.6	1	3	292	0.00	30.047 
10:55	45.1	45.1	45.1	91	42.6	0	3	292	0.00	30.047 
11:00	45.1	45.1	45.1	91	42.6	0	1	292	0.01	30.048 
11:05	45.2	45.2	45.2	92	43.0	0	1	292	0.00	30.048 
11:10	45.4	45.4	45.4	92	43.2	0	2	315	0.00	30.048 
11:15	45.4	45.4	45.4	92	43.2	0	3	315	0.00	30.049 
11:20	45.4	45.4	45.4	92	43.2	1	3	315	0.00	30.049 
11:25	45.4	45.4	45.4	92	43.2	0	2	315	0.00	30.049 
11:30	45.5	45.5	45.5	92	43.3	0	2	315	0.00	30.049 
11:35	45.7	45.7	45.7	92	43.5	0	3	315	0.00	30.049 
11:40	45.7	45.7	45.7	92	43.5	0	1	315	0.00	30.049 
11:45	45.8	45.8	45.8	92	43.6	0	1	315	0.01	30.045 
11:50	45.8	45.8	45.8	92	43.6	0	1	315	0.00	30.045 
11:55	46.0	46.0	46.0	92	43.8	0	1	315	0.00	30.045 
12:00	46.0	46.0	46.0	92	43.8	0	1	315	0.00	30.038 
12:05	46.0	46.0	46.0	92	43.8	0	0	---	0.00	30.038 
12:10	46.1	46.1	46.1	92	43.9	0	0	---	0.00	30.038 
12:15	46.1	46.1	46.1	92	43.9	0	1	315	0.00	30.032 
12:20	46.1	46.1	46.1	92	43.9	0	0	---	0.00	30.032 
12:25	46.2	46.2	46.2	92	44.0	0	0	---	0.00	30.032 
12:30	46.2	46.2	46.2	92	44.0	0	0	---	0.00	30.031 
12:35	46.2	46.2	46.2	92	44.0	0	0	---	0.00	30.031 
12:40	46.4	46.4	46.4	92	44.2	0	1	315	0.00	30.031 
12:45	46.4	46.4	46.4	92	44.2	0	0	---	0.00	30.032 
12:50	46.4	46.4	46.4	92	44.2	0	0	---	0.00	30.032 
12:55	46.5	46.5	46.5	92	44.3	0	2	315	0.00	30.032 
13:00	46.5	46.5	46.5	92	44.3	0	1	315	0.00	30.034 
13:05	46.2	46.2	46.2	92	44.0	0	1	315	0.00	30.034 
13:10	46.2	46.2	46.2	92	44.0	0	1	315	0.00	30.034 
13:15	46.2	46.2	46.2	92	44.0	0	1	315	0.00	30.033 
13:20	46.2	46.2	46.2	91	43.7	0	1	315	0.01	30.033 
13:25	46.2	46.2	46.2	91	43.7	0	0	---	0.00	30.033 
13:30	46.2	46.2	46.2	91	43.7	0	0	---	0.00	30.033 
13:35	46.4	46.4	46.4	91	43.9	0	0	---	0.00	30.033 
13:40	46.5	46.5	46.5	91	44.0	0	2	315	0.00	30.033 
13:45	46.5	46.5	46.5	91	44.0	0	1	315	0.00	30.044 
13:50	46.4	46.4	46.4	91	43.9	0	2	315	0.00	30.044 
13:55	46.2	46.2	46.2	90	43.4	0	1	315	0.00	30.044 
14:00	46.4	46.4	46.4	90	43.6	0	1	315	0.00	30.034 
14:05	46.5	46.5	46.5	90	43.7	0	1	315	0.00	30.034 
14:10	46.5	46.5	46.5	91	44.0	0	1	315	0.00	30.034 
14:15	46.7	46.7	46.7	90	43.9	1	3	315	0.01	30.032 
14:20	46.7	46.7	46.7	90	43.9	0	3	315	0.00	30.032 
14:25	46.7	46.7	46.7	90	43.9	1	3	270	0.00	30.032 
14:30	46.8	46.8	46.8	90	44.0	0	2	270	0.00	30.041 
14:35	46.8	46.8	46.8	89	43.7	0	2	270	0.00	30.041 
14:40	46.8	46.8	46.8	89	43.7	1	3	270	0.00	30.041 
14:45	47.0	47.0	47.0	88	43.6	1	3	292	0.00	30.037 
14:50	47.1	47.1	47.1	87	43.4	1	3	292	0.00	30.037 
14:55	47.3	47.3	47.3	87	43.6	1	3	292	0.00	30.037 
15:00	47.3	47.3	47.3	87	43.6	1	2	292	0.00	30.043 
15:05	47.4	47.4	47.4	86	43.4	1	3	292	0.00	30.043 
15:10	47.6	47.6	47.6	86	43.6	0	2	292	0.00	30.043 
15:15	47.7	47.7	47.7	86	43.7	0	1	292	0.00	30.046 
15:20	48.0	48.0	48.0	86	44.0	0	1	292	0.00	30.046 
15:25	48.2	48.2	48.2	85	43.9	0	1	292	0.00	30.046 
15:30	48.3	48.3	48.3	85	44.0	0	1	292	0.00	30.047 
15:35	48.5	48.5	48.5	85	44.2	0	1	292	0.00	30.047 
15:40	48.6	48.6	48.6	84	44.0	1	3	292	0.00	30.047 
15:45	48.8	48.8	48.8	83	43.9	0	2	292	0.00	30.047 
15:50	48.8	48.8	48.8	83	43.9	1	3	292	0.00	30.047 
15:55	48.8	48.8	48.8	82	43.6	1	4	338	0.00	30.047 
16:00	48.9	48.9	48.9	82	43.6	0	2	338	0.00	30.048 
16:05	49.1	49.1	49.1	82	43.8	0	1	338	0.00	30.048 
16:10	49.1	49.1	49.1	82	43.8	0	2	338	0.00	30.048 
16:15	49.1	49.1	49.1	82	43.8	0	1	338	0.00	30.059 
16:20	49.2	49.2	49.2	82	43.9	0	1	338	0.00	30.059 
16:25	49.2	49.2	49.2	82	43.9	0	1	338	0.00	30.059 
16:30	49.2	49.2	49.2	82	43.9	0	1	338	0.00	30.065 
16:35	49.4	49.4	49.4	81	43.8	0	1	338	0.00	30.065 
16:40	49.2	49.2	49.2	81	43.6	0	1	338	0.00	30.065 
16:45	49.1	49.1	49.1	81	43.5	0	1	338	0.00	30.074 
16:50	49.1	49.1	49.1	81	43.5	0	1	338	0.00	30.074 
16:55	48.9	48.9	48.9	81	43.3	0	0	---	0.00	30.074 
17:00	48.6	48.6	48.6	82	43.4	0	0	---	0.00	30.079 
17:05	48.5	48.5	48.5	82	43.3	0	1	338	0.00	30.079 
17:10	48.3	48.3	48.3	82	43.1	0	0	---	0.00	30.079 
17:15	48.2	48.2	48.2	82	43.0	0	0	---	0.00	30.079 
17:20	47.9	47.9	47.9	82	42.7	0	0	---	0.00	30.079 
17:25	47.7	47.7	47.7	82	42.5	0	0	---	0.00	30.079 
17:30	47.4	47.4	47.4	82	42.2	0	1	338	0.00	30.087 
17:35	47.3	47.3	47.3	82	42.1	0	0	---	0.00	30.087 
17:40	47.0	47.0	47.0	82	41.8	0	0	---	0.00	30.087 
17:45	46.8	46.8	46.8	81	41.3	0	0	---	0.00	30.092 
17:50	46.7	46.7	46.7	81	41.2	0	0	---	0.00	30.092 
17:55	46.4	46.4	46.4	81	40.9	0	0	---	0.00	30.092 
18:00	46.1	46.1	46.1	81	40.6	0	0	---	0.00	30.094 
18:05	45.8	45.8	45.8	81	40.3	0	0	---	0.00	30.094 
18:10	45.7	45.7	45.7	81	40.2	0	1	338	0.00	30.094 
18:15	45.5	45.5	45.5	81	40.0	0	0	---	0.00	30.100 
18:20	45.4	45.4	45.4	80	39.6	0	0	---	0.00	30.100 
18:25	45.2	45.2	45.2	80	39.4	0	0	---	0.00	30.100 
18:30	45.1	45.1	45.1	80	39.3	0	0	---	0.00	30.100 
18:35	45.1	45.1	45.1	80	39.3	0	0	---	0.00	30.100 
18:40	44.9	44.9	44.9	79	38.8	0	1	338	0.00	30.100 
18:45	44.9	44.9	44.9	79	38.8	0	0	---	0.00	30.103 
18:50	44.8	44.8	44.8	78	38.4	0	0	---	0.00	30.103 
18:55	44.6	44.6	44.6	78	38.2	0	1	338	0.00	30.103 
19:00	44.5	44.5	44.5	78	38.1	0	0	---	0.00	30.112 
19:05	44.6	44.6	44.6	77	37.8	0	1	338	0.00	30.112 
19:10	44.5	44.5	44.5	76	37.4	0	0	---	0.00	30.112 
19:15	44.3	44.3	44.3	76	37.2	0	1	338	0.00	30.115 
19:20	44.2	44.2	44.2	76	37.1	0	0	---	0.00	30.115 
19:25	43.9	43.9	43.9	76	36.8	0	0	---	0.00	30.115 
19:30	43.6	43.6	43.6	77	36.9	0	0	---	0.00	30.118 
19:35	43.3	43.3	43.3	77	36.6	0	1	338	0.00	30.118 
19:40	43.3	43.3	43.3	77	36.6	0	0	---	0.00	30.118 
19:45	43.3	43.3	43.3	77	36.6	0	0	---	0.00	30.119 
19:50	43.3	43.3	43.3	77	36.6	0	0	---	0.00	30.119 
19:55	43.2	43.2	43.2	77	36.5	0	0	---	0.00	30.119 
20:00	42.9	42.9	42.9	77	36.2	0	0	---	0.00	30.119 
20:05	42.8	42.8	42.8	77	36.1	0	0	---	0.00	30.119 
20:10	42.6	42.6	42.6	77	35.9	0	1	338	0.00	30.119 
20:15	42.6	42.6	42.6	77	35.9	0	1	338	0.00	30.130 
20:20	42.6	42.6	42.6	77	35.9	0	1	338	0.00	30.130 
20:25	42.6	42.6	42.6	77	35.9	0	1	338	0.00	30.130 
20:30	42.6	42.6	42.6	77	35.9	0	1	338	0.00	30.135 
20:35	42.6	42.6	42.6	77	35.9	0	0	---	0.00	30.135 
20:40	42.6	42.6	42.6	77	35.9	0	0	---	0.00	30.135 
20:45	42.6	42.6	42.6	77	35.9	0	1	338	0.00	30.137 
20:50	42.6	42.6	42.6	77	35.9	0	1	338	0.00	30.137 
20:55	42.6	42.6	42.6	77	35.9	0	2	338	0.00	30.137 
21:00	42.8	42.8	42.8	77	36.1	0	2	338	0.00	30.135 
21:05	42.8	42.8	42.8	77	36.1	0	1	338	0.00	30.135 
21:10	42.8	42.8	42.8	77	36.1	0	1	338	0.00	30.135 
21:15	42.9	42.9	42.9	77	36.2	0	2	338	0.00	30.140 
21:20	42.9	42.9	42.9	77	36.2	0	2	248	0.00	30.140 
21:25	42.9	42.9	42.9	77	36.2	0	2	248	0.00	30.140 
21:30	43.1	43.1	43.1	78	36.7	0	1	248	0.00	30.141 
21:35	43.1	43.1	43.1	78	36.7	0	1	248	0.00	30.141 
21:40	43.1	43.1	43.1	78	36.7	0	2	248	0.00	30.141 
21:45	42.9	42.9	42.9	79	36.8	0	2	248	0.00	30.142 
21:50	42.9	42.9	42.9	79	36.8	0	1	248	0.00	30.142 
21:55	42.8	42.8	42.8	79	36.7	0	1	248	0.00	30.142 
22:00	42.6	42.6	42.6	79	36.6	0	1	248	0.00	30.148 
22:05	42.5	42.5	42.5	80	36.8	0	1	248	0.00	30.148 
22:10	42.3	42.3	42.3	80	36.6	0	1	248	0.00	30.148 
22:15	42.3	42.3	42.3	81	36.9	0	1	248	0.00	30.157 
22:20	42.2	42.2	42.2	81	36.8	0	0	---	0.00	30.157 
22:25	42.1	42.1	42.1	81	36.7	0	1	248	0.00	30.157 
22:30	41.9	41.9	41.9	81	36.5	0	1	248	0.00	30.161 
22:35	41.9	41.9	41.9	81	36.5	0	1	248	0.00	30.161 
22:40	41.9	41.9	41.9	81	36.5	0	1	248	0.00	30.161 
22:45	41.8	41.8	41.8	81	36.4	0	1	248	0.00	30.161 
22:50	41.8	41.8	41.8	81	36.4	0	1	248	0.00	30.161 
22:55	41.8	41.8	41.8	81	36.4	0	1	248	0.00	30.161 
23:00	41.6	41.6	41.6	81	36.2	0	1	248	0.00	30.162 
23:05	41.6	41.6	41.6	81	36.2	0	2	248	0.00	30.162 
23:10	41.8	41.8	41.8	80	36.1	0	2	248	0.00	30.162 
23:15	41.8	41.8	41.8	80	36.1	0	2	248	0.00	30.164 
23:20	41.9	41.9	41.9	79	35.9	0	1	248	0.00	30.164 
23:25	41.9	41.9	41.9	79	35.9	0	1	248	0.00	30.164 
23:30	41.9	41.9	41.9	79	35.9	0	1	248	0.00	30.172 
23:35	41.9	41.9	41.9	78	35.5	0	1	248	0.00	30.172 
23:40	42.1	42.1	42.1	78	35.7	0	1	248	0.00	30.172 
23:45	42.1	42.1	42.1	77	35.4	0	2	248	0.00	30.175 
23:50	41.9	41.9	41.9	77	35.2	0	1	248	0.00	30.175 
23:55	41.9	41.9	41.9	77	35.2	0	1	248	0.00	30.175 

CoCoRaHS
IN-AL-39
A2 Web Hosting
Creative Commons License
GoDaddy
search engine by freefind advanced

loaded 2018-11-17 23:06:48 • last modified 2010-11-18 10:43:29
Privacy PolicyDisclaimer
• wx.awcolley.com is powered by PmWiki v.2002016 •
• all content (unless otherwise noted) © 2018 A W Colley